Sioux Arrow — WAG6168 — position and weather

sailwx.info

Track history (hours):
 
Tides and Currents Weather Stations Pressure Air Temp Water Temp Dewpoint Dewpoint Depression Visibility Wind Speed Wind Dir Waves Ship Positions

Sioux Arrow

Owner: HARMON, JACK L, PORT ANGELES, WA. More information available from US FCC via Universal Licensing System and Coast Guard Vessel Documentation Center.

Last reported at 2014-Nov-22 21:22 UTC. Time now 2014-Nov-23 10:04 UTC.
Position N 48°31' W 122°36'.

Type: Port tender. MMSI: 366973370.

Date/timePositionNaut miles runAvg speedWind from/ knotsBaromVisibWave heightAir tempDewpointWater temp
2014-Nov-22 21:22N 48°31' W 122°36'3 3.4
2014-Nov-22 20:33N 48°33' W 122°34'2 2.2
2014-Nov-22 19:33N 48°31' W 122°35'1 0.1
2014-Nov-22 05:19N 48°31' W 122°37'0 0.1
2014-Nov-22 04:33N 48°31' W 122°36'0 0.0
2014-Nov-21 23:33N 48°31' W 122°36'1 1.1
2014-Nov-21 22:33N 48°31' W 122°35'0 0.0
2014-Nov-21 21:33N 48°31' W 122°35'1 1.1
2014-Nov-21 20:33N 48°31' W 122°37'5 5.5
2014-Nov-21 19:34N 48°35' W 122°33'4 4.1
2014-Nov-21 18:33N 48°31' W 122°34'2 1.8
2014-Nov-21 17:33N 48°31' W 122°36'0 0.1
2014-Nov-21 16:33N 48°31' W 122°37'0 0.2
2014-Nov-21 15:33N 48°31' W 122°36'0 0.0
2014-Nov-21 06:30N 48°31' W 122°36'0 0.0
2014-Nov-21 05:33N 48°31' W 122°36'0 0.0
2014-Nov-21 04:33N 48°31' W 122°36'0 0.0
2014-Nov-21 03:33N 48°31' W 122°36'0 0.0
2014-Nov-21 02:33N 48°31' W 122°36'1 0.7
2014-Nov-21 01:33N 48°31' W 122°37'1 0.9
2014-Nov-21 00:33N 48°31' W 122°36'0 0.4
2014-Nov-20 23:33N 48°31' W 122°36'0 0.2
2014-Nov-20 22:33N 48°31' W 122°36'0 0.0
2014-Nov-20 21:33N 48°31' W 122°36'1 1.0
2014-Nov-20 20:33N 48°31' W 122°35'1 1.0
2014-Nov-20 19:33N 48°31' W 122°36'2 1.5
2014-Nov-20 18:33N 48°31' W 122°34'2 1.6
2014-Nov-20 17:33N 48°31' W 122°37'0 0.0
2014-Nov-20 16:33N 48°31' W 122°37'0 0.1
2014-Nov-20 15:33N 48°31' W 122°36'1 0.1
2014-Nov-20 06:33N 48°31' W 122°35'1 1.0
2014-Nov-20 05:33N 48°31' W 122°36'0 0.0
2014-Nov-20 04:33N 48°31' W 122°36'1 1.3
2014-Nov-20 03:33N 48°31' W 122°35'0 0.2
2014-Nov-20 02:33N 48°31' W 122°34'2 1.6
2014-Nov-20 01:33N 48°31' W 122°36'2 1.5
2014-Nov-20 00:33N 48°31' W 122°34'2 1.5
2014-Nov-19 23:33N 48°31' W 122°36'2 1.6
2014-Nov-19 22:33N 48°31' W 122°34'2 1.6
2014-Nov-19 21:33N 48°31' W 122°36'1 0.8
2014-Nov-19 20:33N 48°31' W 122°35'1 0.8
2014-Nov-19 19:33N 48°31' W 122°36'3 2.7
2014-Nov-19 18:33N 48°33' W 122°34'2 1.8
2014-Nov-19 17:33N 48°35' W 122°34'4 3.8
2014-Nov-19 16:33N 48°31' W 122°34'2 1.6
2014-Nov-19 15:33N 48°31' W 122°36'2 1.6
2014-Nov-19 14:33N 48°31' W 122°34'0 0.1
2014-Nov-19 13:33N 48°31' W 122°34'2 1.5
2014-Nov-19 12:33N 48°31' W 122°36'0 0.0
2014-Nov-19 11:33N 48°31' W 122°36'0 0.0
2014-Nov-19 10:33N 48°31' W 122°36'0 0.0
2014-Nov-19 09:33N 48°31' W 122°36'0 0.0
2014-Nov-19 08:33N 48°31' W 122°36'0 0.0
2014-Nov-19 07:33N 48°31' W 122°36'0 0.0
2014-Nov-19 06:33N 48°31' W 122°36'0 0.0
2014-Nov-19 05:33N 48°31' W 122°36'1 1.4
2014-Nov-19 04:34N 48°31' W 122°34'1 1.2
2014-Nov-19 03:34N 48°31' W 122°36'0 0.1
2014-Nov-19 02:33N 48°31' W 122°36'0 0.0
2014-Nov-19 01:33N 48°31' W 122°36'4 4.2
2014-Nov-19 00:33N 48°35' W 122°34'4 4.2
2014-Nov-18 23:33N 48°31' W 122°36'6 5.7
2014-Nov-18 22:33N 48°35' W 122°32'5 5.5
2014-Nov-18 21:33N 48°31' W 122°36'0 0.3
2014-Nov-18 20:33N 48°31' W 122°36'0 0.1
2014-Nov-18 19:33N 48°31' W 122°36'6 6.0
2014-Nov-18 18:33N 48°36' W 122°32'6 6.0
2014-Nov-18 17:33N 48°31' W 122°37'2 1.6
2014-Nov-18 16:33N 48°31' W 122°34'1 1.4
2014-Nov-18 15:33N 48°31' W 122°36'0 0.1
2014-Nov-18 12:33N 48°31' W 122°36'1 0.2
2014-Nov-18 06:34N 48°31' W 122°35'1 1.0
2014-Nov-18 05:34N 48°31' W 122°36'0 0.0
2014-Nov-18 04:33N 48°31' W 122°36'0 0.3
2014-Nov-18 03:34N 48°31' W 122°36'0 0.5
2014-Nov-18 02:33N 48°31' W 122°35'0 0.1
2014-Nov-18 01:33N 48°31' W 122°35'0 0.0
2014-Nov-18 00:33N 48°31' W 122°35'1 0.8
2014-Nov-17 23:33N 48°31' W 122°36'0 0.1
2014-Nov-17 22:33N 48°31' W 122°36'0 0.0
2014-Nov-17 21:33N 48°31' W 122°36'2 1.5
2014-Nov-17 20:33N 48°31' W 122°34'1 1.3
2014-Nov-17 19:33N 48°31' W 122°36'1 1.3
2014-Nov-17 18:33N 48°31' W 122°34'2 1.5
2014-Nov-17 17:33N 48°31' W 122°36'1 0.6
2014-Nov-17 16:33N 48°31' W 122°36'1 0.6
2014-Nov-17 15:33N 48°31' W 122°36'0 0.0
2014-Nov-17 07:07N 48°31' W 122°36'610.6
2014-Nov-17 06:33N 48°36' W 122°32'6 5.8
2014-Nov-17 05:33N 48°31' W 122°36'0 0.2
2014-Nov-17 04:33N 48°31' W 122°36'0 0.0
2014-Nov-16 21:26N 48°31' W 122°36'6 6.9
2014-Nov-16 20:33N 48°36' W 122°34'6 6.1
2014-Nov-16 19:33N 48°31' W 122°36'3 0.2
2014-Nov-16 00:33N 48°34' W 122°34'3 0.6
2014-Nov-15 18:31N 48°31' W 122°36'0 0.0
2014-Nov-15 17:33N 48°31' W 122°36'0 0.0
2014-Nov-15 08:33N 48°31' W 122°36'6 5.9
2014-Nov-15 07:33N 48°36' W 122°34'2 2.9
2014-Nov-15 06:54N 48°34' W 122°34'410.2
2014-Nov-15 06:33N 48°31' W 122°35'1 0.8
2014-Nov-15 05:33N 48°31' W 122°36'0 0.0
2014-Nov-15 04:33N 48°31' W 122°36'0 0.0
2014-Nov-15 03:33N 48°31' W 122°36'1 1.2
2014-Nov-15 02:33N 48°31' W 122°35'4 4.5
2014-Nov-15 01:33N 48°36' W 122°36'5 5.0
2014-Nov-15 00:33N 48°31' W 122°35'1 0.7
2014-Nov-14 23:33N 48°31' W 122°37'0 0.1
2014-Nov-14 22:33N 48°31' W 122°36'0 0.0
2014-Nov-14 21:33N 48°31' W 122°36'4 4.8
2014-Nov-14 20:48N 48°34' W 122°36'0 1.8
2014-Nov-14 20:33N 48°35' W 122°36'4 4.0
2014-Nov-14 19:33N 48°31' W 122°36'0 0.0
2014-Nov-14 18:34N 48°31' W 122°36'0 0.0
2014-Nov-14 17:34N 48°31' W 122°37'2 1.5
2014-Nov-14 16:33N 48°31' W 122°34'2 1.6
2014-Nov-14 15:33N 48°31' W 122°37'0 0.0
2014-Nov-14 12:27N 48°31' W 122°36'510.2
2014-Nov-14 11:58N 48°35' W 122°34'2 5.0
2014-Nov-14 11:33N 48°33' W 122°34'3 0.4
2014-Nov-14 04:04N 48°31' W 122°36'5 8.9
2014-Nov-14 03:33N 48°35' W 122°36'4 3.6
2014-Nov-14 02:33N 48°32' W 122°34'2 1.7
2014-Nov-14 01:33N 48°31' W 122°36'0 0.2
2014-Nov-14 00:33N 48°31' W 122°36'0 0.0
2014-Nov-13 23:33N 48°31' W 122°36'0 0.0
2014-Nov-13 22:33N 48°31' W 122°36'0 0.0
2014-Nov-13 21:33N 48°31' W 122°36'0 0.0
2014-Nov-13 20:33N 48°31' W 122°36'0 0.0
2014-Nov-13 19:33N 48°31' W 122°36'0 0.0
2014-Nov-13 18:33N 48°31' W 122°36'2 2.1
2014-Nov-13 17:34N 48°32' W 122°34'2 1.6
2014-Nov-13 16:33N 48°34' W 122°34'3 3.4
2014-Nov-13 15:34N 48°31' W 122°36'0 0.0
2014-Nov-13 14:33N 48°31' W 122°36'0 0.0
2014-Nov-13 13:33N 48°31' W 122°36'0 0.0
2014-Nov-13 12:33N 48°31' W 122°36'0 0.0
2014-Nov-13 11:33N 48°31' W 122°36'0 0.0
2014-Nov-13 10:33N 48°31' W 122°36'0 0.0
2014-Nov-13 09:33N 48°31' W 122°36'0 0.0
2014-Nov-13 08:33N 48°31' W 122°36'0 0.0
2014-Nov-13 07:33N 48°31' W 122°36'0 0.0
2014-Nov-13 06:33N 48°31' W 122°36'0 0.0
2014-Nov-13 05:33N 48°31' W 122°36'0 0.0
2014-Nov-13 04:34N 48°31' W 122°36'0 0.1
2014-Nov-13 03:33N 48°31' W 122°36'312.1
2014-Nov-13 03:16N 48°34' W 122°34'4 5.1
2014-Nov-13 02:33N 48°31' W 122°36'410.9
2014-Nov-13 02:11N 48°34' W 122°34'4 5.8
2014-Nov-13 01:33N 48°31' W 122°35'1 0.8
2014-Nov-13 00:33N 48°31' W 122°36'0 0.1
2014-Nov-12 23:33N 48°31' W 122°37'0 0.1
2014-Nov-12 22:33N 48°31' W 122°36'0 0.0
2014-Nov-12 21:33N 48°31' W 122°36'  
Track history (hours):
 
Tides and Currents Weather Stations Pressure Air Temp Water Temp Dewpoint Dewpoint Depression Visibility Wind Speed Wind Dir Waves Ship Positions

Sioux Arrow

Owner: HARMON, JACK L, PORT ANGELES, WA. More information available from US FCC via Universal Licensing System and Coast Guard Vessel Documentation Center.

Last reported at 2014-Nov-22 21:22 UTC. Time now 2014-Nov-23 10:04 UTC.
Position N 48°31' W 122°36'.

Type: Port tender. MMSI: 366973370.

Date/timePositionNaut miles runAvg speedWind from/ knotsBaromVisibWave heightAir tempDewpointWater temp
2014-Nov-22 21:22N 48°31' W 122°36'3 3.4
2014-Nov-22 20:33N 48°33' W 122°34'2 2.2
2014-Nov-22 19:33N 48°31' W 122°35'1 0.1
2014-Nov-22 05:19N 48°31' W 122°37'0 0.1
2014-Nov-22 04:33N 48°31' W 122°36'0 0.0
2014-Nov-21 23:33N 48°31' W 122°36'1 1.1
2014-Nov-21 22:33N 48°31' W 122°35'0 0.0
2014-Nov-21 21:33N 48°31' W 122°35'1 1.1
2014-Nov-21 20:33N 48°31' W 122°37'5 5.5
2014-Nov-21 19:34N 48°35' W 122°33'4 4.1
2014-Nov-21 18:33N 48°31' W 122°34'2 1.8
2014-Nov-21 17:33N 48°31' W 122°36'0 0.1
2014-Nov-21 16:33N 48°31' W 122°37'0 0.2
2014-Nov-21 15:33N 48°31' W 122°36'0 0.0
2014-Nov-21 06:30N 48°31' W 122°36'0 0.0
2014-Nov-21 05:33N 48°31' W 122°36'0 0.0
2014-Nov-21 04:33N 48°31' W 122°36'0 0.0
2014-Nov-21 03:33N 48°31' W 122°36'0 0.0
2014-Nov-21 02:33N 48°31' W 122°36'1 0.7
2014-Nov-21 01:33N 48°31' W 122°37'1 0.9
2014-Nov-21 00:33N 48°31' W 122°36'0 0.4
2014-Nov-20 23:33N 48°31' W 122°36'0 0.2
2014-Nov-20 22:33N 48°31' W 122°36'0 0.0
2014-Nov-20 21:33N 48°31' W 122°36'1 1.0
2014-Nov-20 20:33N 48°31' W 122°35'1 1.0
2014-Nov-20 19:33N 48°31' W 122°36'2 1.5
2014-Nov-20 18:33N 48°31' W 122°34'2 1.6
2014-Nov-20 17:33N 48°31' W 122°37'0 0.0
2014-Nov-20 16:33N 48°31' W 122°37'0 0.1
2014-Nov-20 15:33N 48°31' W 122°36'1 0.1
2014-Nov-20 06:33N 48°31' W 122°35'1 1.0
2014-Nov-20 05:33N 48°31' W 122°36'0 0.0
2014-Nov-20 04:33N 48°31' W 122°36'1 1.3
2014-Nov-20 03:33N 48°31' W 122°35'0 0.2
2014-Nov-20 02:33N 48°31' W 122°34'2 1.6
2014-Nov-20 01:33N 48°31' W 122°36'2 1.5
2014-Nov-20 00:33N 48°31' W 122°34'2 1.5
2014-Nov-19 23:33N 48°31' W 122°36'2 1.6
2014-Nov-19 22:33N 48°31' W 122°34'2 1.6
2014-Nov-19 21:33N 48°31' W 122°36'1 0.8
2014-Nov-19 20:33N 48°31' W 122°35'1 0.8
2014-Nov-19 19:33N 48°31' W 122°36'3 2.7
2014-Nov-19 18:33N 48°33' W 122°34'2 1.8
2014-Nov-19 17:33N 48°35' W 122°34'4 3.8
2014-Nov-19 16:33N 48°31' W 122°34'2 1.6
2014-Nov-19 15:33N 48°31' W 122°36'2 1.6
2014-Nov-19 14:33N 48°31' W 122°34'0 0.1
2014-Nov-19 13:33N 48°31' W 122°34'2 1.5
2014-Nov-19 12:33N 48°31' W 122°36'0 0.0
2014-Nov-19 11:33N 48°31' W 122°36'0 0.0
2014-Nov-19 10:33N 48°31' W 122°36'0 0.0
2014-Nov-19 09:33N 48°31' W 122°36'0 0.0
2014-Nov-19 08:33N 48°31' W 122°36'0 0.0
2014-Nov-19 07:33N 48°31' W 122°36'0 0.0
2014-Nov-19 06:33N 48°31' W 122°36'0 0.0
2014-Nov-19 05:33N 48°31' W 122°36'1 1.4
2014-Nov-19 04:34N 48°31' W 122°34'1 1.2
2014-Nov-19 03:34N 48°31' W 122°36'0 0.1
2014-Nov-19 02:33N 48°31' W 122°36'0 0.0
2014-Nov-19 01:33N 48°31' W 122°36'4 4.2
2014-Nov-19 00:33N 48°35' W 122°34'4 4.2
2014-Nov-18 23:33N 48°31' W 122°36'6 5.7
2014-Nov-18 22:33N 48°35' W 122°32'5 5.5
2014-Nov-18 21:33N 48°31' W 122°36'0 0.3
2014-Nov-18 20:33N 48°31' W 122°36'0 0.1
2014-Nov-18 19:33N 48°31' W 122°36'6 6.0
2014-Nov-18 18:33N 48°36' W 122°32'6 6.0
2014-Nov-18 17:33N 48°31' W 122°37'2 1.6
2014-Nov-18 16:33N 48°31' W 122°34'1 1.4
2014-Nov-18 15:33N 48°31' W 122°36'0 0.1
2014-Nov-18 12:33N 48°31' W 122°36'1 0.2
2014-Nov-18 06:34N 48°31' W 122°35'1 1.0
2014-Nov-18 05:34N 48°31' W 122°36'0 0.0
2014-Nov-18 04:33N 48°31' W 122°36'0 0.3
2014-Nov-18 03:34N 48°31' W 122°36'0 0.5
2014-Nov-18 02:33N 48°31' W 122°35'0 0.1
2014-Nov-18 01:33N 48°31' W 122°35'0 0.0
2014-Nov-18 00:33N 48°31' W 122°35'1 0.8
2014-Nov-17 23:33N 48°31' W 122°36'0 0.1
2014-Nov-17 22:33N 48°31' W 122°36'0 0.0
2014-Nov-17 21:33N 48°31' W 122°36'2 1.5
2014-Nov-17 20:33N 48°31' W 122°34'1 1.3
2014-Nov-17 19:33N 48°31' W 122°36'1 1.3
2014-Nov-17 18:33N 48°31' W 122°34'2 1.5
2014-Nov-17 17:33N 48°31' W 122°36'1 0.6
2014-Nov-17 16:33N 48°31' W 122°36'1 0.6
2014-Nov-17 15:33N 48°31' W 122°36'0 0.0
2014-Nov-17 07:07N 48°31' W 122°36'610.6
2014-Nov-17 06:33N 48°36' W 122°32'6 5.8
2014-Nov-17 05:33N 48°31' W 122°36'0 0.2
2014-Nov-17 04:33N 48°31' W 122°36'0 0.0
2014-Nov-16 21:26N 48°31' W 122°36'6 6.9
2014-Nov-16 20:33N 48°36' W 122°34'6 6.1
2014-Nov-16 19:33N 48°31' W 122°36'3 0.2
2014-Nov-16 00:33N 48°34' W 122°34'3 0.6
2014-Nov-15 18:31N 48°31' W 122°36'0 0.0
2014-Nov-15 17:33N 48°31' W 122°36'0 0.0
2014-Nov-15 08:33N 48°31' W 122°36'6 5.9
2014-Nov-15 07:33N 48°36' W 122°34'2 2.9
2014-Nov-15 06:54N 48°34' W 122°34'410.2
2014-Nov-15 06:33N 48°31' W 122°35'1 0.8
2014-Nov-15 05:33N 48°31' W 122°36'0 0.0
2014-Nov-15 04:33N 48°31' W 122°36'0 0.0
2014-Nov-15 03:33N 48°31' W 122°36'1 1.2
2014-Nov-15 02:33N 48°31' W 122°35'4 4.5
2014-Nov-15 01:33N 48°36' W 122°36'5 5.0
2014-Nov-15 00:33N 48°31' W 122°35'1 0.7
2014-Nov-14 23:33N 48°31' W 122°37'0 0.1
2014-Nov-14 22:33N 48°31' W 122°36'0 0.0
2014-Nov-14 21:33N 48°31' W 122°36'4 4.8
2014-Nov-14 20:48N 48°34' W 122°36'0 1.8
2014-Nov-14 20:33N 48°35' W 122°36'4 4.0
2014-Nov-14 19:33N 48°31' W 122°36'0 0.0
2014-Nov-14 18:34N 48°31' W 122°36'0 0.0
2014-Nov-14 17:34N 48°31' W 122°37'2 1.5
2014-Nov-14 16:33N 48°31' W 122°34'2 1.6
2014-Nov-14 15:33N 48°31' W 122°37'0 0.0
2014-Nov-14 12:27N 48°31' W 122°36'510.2
2014-Nov-14 11:58N 48°35' W 122°34'2 5.0
2014-Nov-14 11:33N 48°33' W 122°34'3 0.4
2014-Nov-14 04:04N 48°31' W 122°36'5 8.9
2014-Nov-14 03:33N 48°35' W 122°36'4 3.6
2014-Nov-14 02:33N 48°32' W 122°34'2 1.7
2014-Nov-14 01:33N 48°31' W 122°36'0 0.2
2014-Nov-14 00:33N 48°31' W 122°36'0 0.0
2014-Nov-13 23:33N 48°31' W 122°36'0 0.0
2014-Nov-13 22:33N 48°31' W 122°36'0 0.0
2014-Nov-13 21:33N 48°31' W 122°36'0 0.0
2014-Nov-13 20:33N 48°31' W 122°36'0 0.0
2014-Nov-13 19:33N 48°31' W 122°36'0 0.0
2014-Nov-13 18:33N 48°31' W 122°36'2 2.1
2014-Nov-13 17:34N 48°32' W 122°34'2 1.6
2014-Nov-13 16:33N 48°34' W 122°34'3 3.4
2014-Nov-13 15:34N 48°31' W 122°36'0 0.0
2014-Nov-13 14:33N 48°31' W 122°36'0 0.0
2014-Nov-13 13:33N 48°31' W 122°36'0 0.0
2014-Nov-13 12:33N 48°31' W 122°36'0 0.0
2014-Nov-13 11:33N 48°31' W 122°36'0 0.0
2014-Nov-13 10:33N 48°31' W 122°36'0 0.0
2014-Nov-13 09:33N 48°31' W 122°36'0 0.0
2014-Nov-13 08:33N 48°31' W 122°36'0 0.0
2014-Nov-13 07:33N 48°31' W 122°36'0 0.0
2014-Nov-13 06:33N 48°31' W 122°36'0 0.0
2014-Nov-13 05:33N 48°31' W 122°36'0 0.0
2014-Nov-13 04:34N 48°31' W 122°36'0 0.1
2014-Nov-13 03:33N 48°31' W 122°36'312.1
2014-Nov-13 03:16N 48°34' W 122°34'4 5.1
2014-Nov-13 02:33N 48°31' W 122°36'410.9
2014-Nov-13 02:11N 48°34' W 122°34'4 5.8
2014-Nov-13 01:33N 48°31' W 122°35'1 0.8
2014-Nov-13 00:33N 48°31' W 122°36'0 0.1
2014-Nov-12 23:33N 48°31' W 122°37'0 0.1
2014-Nov-12 22:33N 48°31' W 122°36'0 0.0
2014-Nov-12 21:33N 48°31' W 122°36'  

Dump ship's entire track history